sensor_id;sensor_type;location;lat;lon;timestamp;P1;durP1;ratioP1;P2;durP2;ratioP2
19593;SDS011;9944;48.240;16.478;2023-12-20T00:00:17;21.00;;;13.63;;
19593;SDS011;9944;48.240;16.478;2023-12-20T00:04:21;22.63;;;13.83;;
19593;SDS011;9944;48.240;16.478;2023-12-20T00:08:24;22.07;;;13.23;;
19593;SDS011;9944;48.240;16.478;2023-12-20T00:12:28;21.70;;;14.10;;
19593;SDS011;9944;48.240;16.478;2023-12-20T00:16:32;21.73;;;14.10;;
19593;SDS011;9944;48.240;16.478;2023-12-20T00:20:36;22.00;;;14.03;;
19593;SDS011;9944;48.240;16.478;2023-12-20T00:24:39;23.83;;;14.33;;
19593;SDS011;9944;48.240;16.478;2023-12-20T00:28:42;20.27;;;13.30;;
19593;SDS011;9944;48.240;16.478;2023-12-20T00:32:47;23.00;;;13.83;;
19593;SDS011;9944;48.240;16.478;2023-12-20T00:36:50;20.37;;;13.57;;
19593;SDS011;9944;48.240;16.478;2023-12-20T00:40:53;20.10;;;13.17;;
19593;SDS011;9944;48.240;16.478;2023-12-20T00:44:58;21.77;;;13.30;;
19593;SDS011;9944;48.240;16.478;2023-12-20T00:49:02;21.40;;;12.93;;
19593;SDS011;9944;48.240;16.478;2023-12-20T00:53:06;23.50;;;15.00;;
19593;SDS011;9944;48.240;16.478;2023-12-20T00:57:09;22.57;;;13.93;;
19593;SDS011;9944;48.240;16.478;2023-12-20T01:01:12;23.53;;;14.73;;
19593;SDS011;9944;48.240;16.478;2023-12-20T01:05:17;22.00;;;13.67;;
19593;SDS011;9944;48.240;16.478;2023-12-20T01:09:21;22.80;;;13.93;;
19593;SDS011;9944;48.240;16.478;2023-12-20T01:13:28;22.20;;;14.80;;
19593;SDS011;9944;48.240;16.478;2023-12-20T01:17:31;23.23;;;14.33;;
19593;SDS011;9944;48.240;16.478;2023-12-20T01:21:35;23.37;;;14.70;;
19593;SDS011;9944;48.240;16.478;2023-12-20T01:25:39;24.47;;;14.07;;
19593;SDS011;9944;48.240;16.478;2023-12-20T01:29:42;27.57;;;15.03;;
19593;SDS011;9944;48.240;16.478;2023-12-20T01:33:46;26.03;;;15.00;;
19593;SDS011;9944;48.240;16.478;2023-12-20T01:37:50;22.73;;;14.77;;
19593;SDS011;9944;48.240;16.478;2023-12-20T01:41:54;21.97;;;14.67;;
19593;SDS011;9944;48.240;16.478;2023-12-20T01:45:57;22.30;;;13.70;;
19593;SDS011;9944;48.240;16.478;2023-12-20T01:50:01;22.93;;;14.60;;
19593;SDS011;9944;48.240;16.478;2023-12-20T01:54:07;22.20;;;14.10;;
19593;SDS011;9944;48.240;16.478;2023-12-20T01:58:11;24.93;;;15.17;;
19593;SDS011;9944;48.240;16.478;2023-12-20T02:02:16;21.37;;;14.53;;
19593;SDS011;9944;48.240;16.478;2023-12-20T02:06:20;24.63;;;15.73;;
19593;SDS011;9944;48.240;16.478;2023-12-20T02:10:27;22.60;;;14.53;;
19593;SDS011;9944;48.240;16.478;2023-12-20T02:14:31;22.53;;;14.83;;
19593;SDS011;9944;48.240;16.478;2023-12-20T02:18:34;20.67;;;13.37;;
19593;SDS011;9944;48.240;16.478;2023-12-20T02:22:39;25.43;;;15.23;;
19593;SDS011;9944;48.240;16.478;2023-12-20T02:26:42;21.50;;;14.03;;
19593;SDS011;9944;48.240;16.478;2023-12-20T02:30:47;21.80;;;14.40;;
19593;SDS011;9944;48.240;16.478;2023-12-20T02:34:51;20.40;;;13.30;;
19593;SDS011;9944;48.240;16.478;2023-12-20T02:38:57;20.00;;;13.00;;
19593;SDS011;9944;48.240;16.478;2023-12-20T02:42:59;20.80;;;13.47;;
19593;SDS011;9944;48.240;16.478;2023-12-20T02:47:03;21.43;;;13.53;;
19593;SDS011;9944;48.240;16.478;2023-12-20T02:51:06;19.70;;;12.87;;
19593;SDS011;9944;48.240;16.478;2023-12-20T02:55:11;18.10;;;12.03;;
19593;SDS011;9944;48.240;16.478;2023-12-20T02:59:14;21.07;;;13.37;;
19593;SDS011;9944;48.240;16.478;2023-12-20T03:03:17;19.13;;;12.40;;
19593;SDS011;9944;48.240;16.478;2023-12-20T03:07:21;21.37;;;13.27;;
19593;SDS011;9944;48.240;16.478;2023-12-20T03:11:27;22.53;;;13.40;;
19593;SDS011;9944;48.240;16.478;2023-12-20T03:15:31;20.03;;;12.10;;
19593;SDS011;9944;48.240;16.478;2023-12-20T03:19:34;18.33;;;12.20;;
19593;SDS011;9944;48.240;16.478;2023-12-20T03:23:37;20.53;;;13.33;;
19593;SDS011;9944;48.240;16.478;2023-12-20T03:27:42;21.20;;;13.37;;
19593;SDS011;9944;48.240;16.478;2023-12-20T03:31:45;19.27;;;12.87;;
19593;SDS011;9944;48.240;16.478;2023-12-20T03:35:49;20.67;;;13.23;;
19593;SDS011;9944;48.240;16.478;2023-12-20T03:39:52;18.13;;;12.73;;
19593;SDS011;9944;48.240;16.478;2023-12-20T03:43:56;23.07;;;13.47;;
19593;SDS011;9944;48.240;16.478;2023-12-20T03:47:59;20.90;;;13.87;;
19593;SDS011;9944;48.240;16.478;2023-12-20T03:52:03;25.03;;;14.10;;
19593;SDS011;9944;48.240;16.478;2023-12-20T03:56:06;20.97;;;13.83;;
19593;SDS011;9944;48.240;16.478;2023-12-20T04:00:11;21.73;;;13.87;;
19593;SDS011;9944;48.240;16.478;2023-12-20T04:04:15;21.63;;;13.70;;
19593;SDS011;9944;48.240;16.478;2023-12-20T04:08:18;19.00;;;12.83;;
19593;SDS011;9944;48.240;16.478;2023-12-20T04:12:22;19.43;;;12.67;;
19593;SDS011;9944;48.240;16.478;2023-12-20T04:16:27;19.20;;;13.43;;
19593;SDS011;9944;48.240;16.478;2023-12-20T04:20:30;19.43;;;12.73;;
19593;SDS011;9944;48.240;16.478;2023-12-20T04:24:34;19.77;;;13.43;;
19593;SDS011;9944;48.240;16.478;2023-12-20T04:28:37;19.90;;;12.53;;
19593;SDS011;9944;48.240;16.478;2023-12-20T04:32:42;20.67;;;12.40;;
19593;SDS011;9944;48.240;16.478;2023-12-20T04:36:45;17.70;;;12.57;;
19593;SDS011;9944;48.240;16.478;2023-12-20T04:40:49;17.60;;;12.70;;
19593;SDS011;9944;48.240;16.478;2023-12-20T04:44:52;19.60;;;13.47;;
19593;SDS011;9944;48.240;16.478;2023-12-20T04:48:56;19.87;;;13.03;;
19593;SDS011;9944;48.240;16.478;2023-12-20T04:53:00;21.37;;;13.67;;
19593;SDS011;9944;48.240;16.478;2023-12-20T04:57:04;17.83;;;11.67;;
19593;SDS011;9944;48.240;16.478;2023-12-20T05:01:08;16.37;;;11.57;;
19593;SDS011;9944;48.240;16.478;2023-12-20T05:05:13;16.43;;;11.30;;
19593;SDS011;9944;48.240;16.478;2023-12-20T05:09:16;17.50;;;11.70;;
19593;SDS011;9944;48.240;16.478;2023-12-20T05:13:19;17.67;;;11.60;;
19593;SDS011;9944;48.240;16.478;2023-12-20T05:17:27;16.87;;;11.50;;
19593;SDS011;9944;48.240;16.478;2023-12-20T05:21:31;16.60;;;11.47;;
19593;SDS011;9944;48.240;16.478;2023-12-20T05:25:34;13.37;;;9.97;;
19593;SDS011;9944;48.240;16.478;2023-12-20T05:29:38;17.63;;;11.10;;
19593;SDS011;9944;48.240;16.478;2023-12-20T05:33:41;16.20;;;10.13;;
19593;SDS011;9944;48.240;16.478;2023-12-20T05:37:45;15.37;;;10.40;;
19593;SDS011;9944;48.240;16.478;2023-12-20T05:41:48;15.67;;;10.20;;
19593;SDS011;9944;48.240;16.478;2023-12-20T05:45:52;15.07;;;10.63;;
19593;SDS011;9944;48.240;16.478;2023-12-20T05:49:55;16.87;;;11.27;;
19593;SDS011;9944;48.240;16.478;2023-12-20T05:54:00;15.97;;;10.27;;
19593;SDS011;9944;48.240;16.478;2023-12-20T05:58:03;16.27;;;10.50;;
19593;SDS011;9944;48.240;16.478;2023-12-20T06:02:07;17.37;;;12.13;;
19593;SDS011;9944;48.240;16.478;2023-12-20T06:06:10;16.27;;;11.40;;
19593;SDS011;9944;48.240;16.478;2023-12-20T06:10:19;18.27;;;12.03;;
19593;SDS011;9944;48.240;16.478;2023-12-20T06:14:23;19.77;;;12.17;;
19593;SDS011;9944;48.240;16.478;2023-12-20T06:18:27;16.73;;;12.07;;
19593;SDS011;9944;48.240;16.478;2023-12-20T06:22:30;18.23;;;11.40;;
19593;SDS011;9944;48.240;16.478;2023-12-20T06:26:35;20.57;;;13.33;;
19593;SDS011;9944;48.240;16.478;2023-12-20T06:30:38;20.13;;;12.93;;
19593;SDS011;9944;48.240;16.478;2023-12-20T06:34:42;21.50;;;13.67;;
19593;SDS011;9944;48.240;16.478;2023-12-20T06:38:46;20.60;;;13.20;;
19593;SDS011;9944;48.240;16.478;2023-12-20T06:42:50;20.57;;;12.57;;
19593;SDS011;9944;48.240;16.478;2023-12-20T06:47:09;18.73;;;12.40;;
19593;SDS011;9944;48.240;16.478;2023-12-20T06:51:13;18.37;;;11.17;;
19593;SDS011;9944;48.240;16.478;2023-12-20T06:55:18;12.07;;;7.73;;
19593;SDS011;9944;48.240;16.478;2023-12-20T06:59:23;10.00;;;7.13;;
19593;SDS011;9944;48.240;16.478;2023-12-20T07:03:26;3.43;;;1.90;;
19593;SDS011;9944;48.240;16.478;2023-12-20T07:07:29;4.53;;;2.23;;
19593;SDS011;9944;48.240;16.478;2023-12-20T07:11:33;4.10;;;2.20;;
19593;SDS011;9944;48.240;16.478;2023-12-20T07:15:37;4.93;;;2.20;;
19593;SDS011;9944;48.240;16.478;2023-12-20T07:19:41;2.58;;;1.83;;
19593;SDS011;9944;48.240;16.478;2023-12-20T07:23:45;2.85;;;1.90;;
19593;SDS011;9944;48.240;16.478;2023-12-20T07:27:48;4.35;;;2.20;;
19593;SDS011;9944;48.240;16.478;2023-12-20T07:31:53;2.40;;;1.70;;
19593;SDS011;9944;48.240;16.478;2023-12-20T07:35:56;3.08;;;1.88;;
19593;SDS011;9944;48.240;16.478;2023-12-20T07:40:00;3.60;;;1.95;;
19593;SDS011;9944;48.240;16.478;2023-12-20T07:44:05;2.92;;;2.20;;
19593;SDS011;9944;48.240;16.478;2023-12-20T07:48:10;3.70;;;1.92;;
19593;SDS011;9944;48.240;16.478;2023-12-20T07:52:13;2.75;;;1.90;;
19593;SDS011;9944;48.240;16.478;2023-12-20T07:56:16;3.63;;;1.75;;
19593;SDS011;9944;48.240;16.478;2023-12-20T08:00:20;3.10;;;2.08;;
19593;SDS011;9944;48.240;16.478;2023-12-20T08:04:25;3.55;;;1.90;;
19593;SDS011;9944;48.240;16.478;2023-12-20T08:08:29;2.58;;;2.13;;
19593;SDS011;9944;48.240;16.478;2023-12-20T08:12:32;2.47;;;1.75;;
19593;SDS011;9944;48.240;16.478;2023-12-20T08:16:36;4.68;;;2.50;;
19593;SDS011;9944;48.240;16.478;2023-12-20T08:20:41;2.78;;;1.80;;
19593;SDS011;9944;48.240;16.478;2023-12-20T08:24:44;2.42;;;1.50;;
19593;SDS011;9944;48.240;16.478;2023-12-20T08:28:47;1.25;;;1.15;;
19593;SDS011;9944;48.240;16.478;2023-12-20T08:32:50;2.17;;;1.38;;
19593;SDS011;9944;48.240;16.478;2023-12-20T08:36:55;2.83;;;1.50;;
19593;SDS011;9944;48.240;16.478;2023-12-20T08:40:59;2.08;;;1.42;;
19593;SDS011;9944;48.240;16.478;2023-12-20T08:45:03;3.13;;;1.60;;
19593;SDS011;9944;48.240;16.478;2023-12-20T08:49:07;3.22;;;1.48;;
19593;SDS011;9944;48.240;16.478;2023-12-20T08:53:13;2.22;;;1.45;;
19593;SDS011;9944;48.240;16.478;2023-12-20T08:57:17;2.03;;;1.50;;
19593;SDS011;9944;48.240;16.478;2023-12-20T09:01:20;2.05;;;1.58;;
19593;SDS011;9944;48.240;16.478;2023-12-20T09:05:23;2.08;;;1.50;;
19593;SDS011;9944;48.240;16.478;2023-12-20T09:09:29;2.15;;;1.63;;
19593;SDS011;9944;48.240;16.478;2023-12-20T09:13:33;1.90;;;1.70;;
19593;SDS011;9944;48.240;16.478;2023-12-20T09:17:37;2.22;;;1.55;;
19593;SDS011;9944;48.240;16.478;2023-12-20T09:21:40;1.90;;;1.65;;
19593;SDS011;9944;48.240;16.478;2023-12-20T09:25:45;4.47;;;2.00;;
19593;SDS011;9944;48.240;16.478;2023-12-20T09:29:48;2.08;;;1.55;;
19593;SDS011;9944;48.240;16.478;2023-12-20T09:33:51;1.92;;;1.35;;
19593;SDS011;9944;48.240;16.478;2023-12-20T09:37:55;2.50;;;1.40;;
19593;SDS011;9944;48.240;16.478;2023-12-20T09:42:01;1.55;;;1.27;;
19593;SDS011;9944;48.240;16.478;2023-12-20T09:46:06;1.25;;;1.02;;
19593;SDS011;9944;48.240;16.478;2023-12-20T09:50:10;1.63;;;1.27;;
19593;SDS011;9944;48.240;16.478;2023-12-20T09:54:14;2.20;;;1.02;;
19593;SDS011;9944;48.240;16.478;2023-12-20T09:58:21;1.00;;;1.00;;
19593;SDS011;9944;48.240;16.478;2023-12-20T10:02:24;2.30;;;1.40;;
19593;SDS011;9944;48.240;16.478;2023-12-20T10:06:29;1.17;;;0.93;;
19593;SDS011;9944;48.240;16.478;2023-12-20T10:10:32;1.60;;;1.05;;
19593;SDS011;9944;48.240;16.478;2023-12-20T10:14:48;1.58;;;1.45;;
19593;SDS011;9944;48.240;16.478;2023-12-20T10:18:52;2.08;;;1.30;;
19593;SDS011;9944;48.240;16.478;2023-12-20T10:22:56;1.25;;;1.15;;
19593;SDS011;9944;48.240;16.478;2023-12-20T10:27:03;1.35;;;0.80;;
19593;SDS011;9944;48.240;16.478;2023-12-20T10:31:09;1.23;;;1.05;;
19593;SDS011;9944;48.240;16.478;2023-12-20T10:35:12;1.83;;;1.20;;
19593;SDS011;9944;48.240;16.478;2023-12-20T10:39:16;1.52;;;1.25;;
19593;SDS011;9944;48.240;16.478;2023-12-20T10:43:21;1.75;;;1.33;;
19593;SDS011;9944;48.240;16.478;2023-12-20T10:47:31;2.15;;;1.30;;
19593;SDS011;9944;48.240;16.478;2023-12-20T10:51:37;1.65;;;1.40;;
19593;SDS011;9944;48.240;16.478;2023-12-20T10:55:41;1.70;;;1.27;;
19593;SDS011;9944;48.240;16.478;2023-12-20T10:59:46;1.52;;;1.20;;
19593;SDS011;9944;48.240;16.478;2023-12-20T11:03:58;2.10;;;1.30;;
19593;SDS011;9944;48.240;16.478;2023-12-20T11:08:06;1.52;;;1.17;;
19593;SDS011;9944;48.240;16.478;2023-12-20T11:12:13;2.08;;;1.20;;
19593;SDS011;9944;48.240;16.478;2023-12-20T11:16:20;1.30;;;1.20;;
19593;SDS011;9944;48.240;16.478;2023-12-20T11:20:36;2.30;;;1.42;;
19593;SDS011;9944;48.240;16.478;2023-12-20T11:24:44;2.08;;;1.40;;
19593;SDS011;9944;48.240;16.478;2023-12-20T11:28:48;1.67;;;1.30;;
19593;SDS011;9944;48.240;16.478;2023-12-20T11:32:52;1.27;;;1.17;;
19593;SDS011;9944;48.240;16.478;2023-12-20T11:37:01;1.25;;;1.13;;
19593;SDS011;9944;48.240;16.478;2023-12-20T11:41:06;1.85;;;1.42;;
19593;SDS011;9944;48.240;16.478;2023-12-20T11:45:09;2.40;;;1.38;;
19593;SDS011;9944;48.240;16.478;2023-12-20T11:49:15;1.55;;;1.35;;
19593;SDS011;9944;48.240;16.478;2023-12-20T11:53:20;1.38;;;1.27;;
19593;SDS011;9944;48.240;16.478;2023-12-20T11:57:23;1.40;;;1.15;;
19593;SDS011;9944;48.240;16.478;2023-12-20T12:01:27;1.50;;;1.08;;
19593;SDS011;9944;48.240;16.478;2023-12-20T12:05:31;2.60;;;1.20;;
19593;SDS011;9944;48.240;16.478;2023-12-20T12:09:36;1.73;;;1.20;;
19593;SDS011;9944;48.240;16.478;2023-12-20T12:13:39;1.48;;;0.93;;
19593;SDS011;9944;48.240;16.478;2023-12-20T12:17:43;1.20;;;1.10;;
19593;SDS011;9944;48.240;16.478;2023-12-20T12:21:46;1.77;;;1.30;;
19593;SDS011;9944;48.240;16.478;2023-12-20T12:25:52;1.40;;;1.30;;
19593;SDS011;9944;48.240;16.478;2023-12-20T12:30:00;1.52;;;1.20;;
19593;SDS011;9944;48.240;16.478;2023-12-20T12:34:05;1.27;;;1.17;;
19593;SDS011;9944;48.240;16.478;2023-12-20T12:38:10;1.95;;;1.30;;
19593;SDS011;9944;48.240;16.478;2023-12-20T12:42:15;1.15;;;1.00;;
19593;SDS011;9944;48.240;16.478;2023-12-20T12:46:19;1.70;;;1.10;;
19593;SDS011;9944;48.240;16.478;2023-12-20T12:50:24;1.10;;;1.00;;
19593;SDS011;9944;48.240;16.478;2023-12-20T12:54:29;1.00;;;0.90;;
19593;SDS011;9944;48.240;16.478;2023-12-20T12:58:34;1.95;;;1.10;;
19593;SDS011;9944;48.240;16.478;2023-12-20T13:02:37;1.20;;;1.10;;
19593;SDS011;9944;48.240;16.478;2023-12-20T13:06:43;1.27;;;1.05;;
19593;SDS011;9944;48.240;16.478;2023-12-20T13:10:47;1.30;;;1.00;;
19593;SDS011;9944;48.240;16.478;2023-12-20T13:14:52;1.13;;;1.00;;
19593;SDS011;9944;48.240;16.478;2023-12-20T13:18:55;1.00;;;0.90;;
19593;SDS011;9944;48.240;16.478;2023-12-20T13:22:58;1.05;;;0.90;;
19593;SDS011;9944;48.240;16.478;2023-12-20T13:27:02;1.67;;;1.15;;
19593;SDS011;9944;48.240;16.478;2023-12-20T13:31:07;1.17;;;1.02;;
19593;SDS011;9944;48.240;16.478;2023-12-20T13:35:10;0.90;;;0.90;;
19593;SDS011;9944;48.240;16.478;2023-12-20T13:39:14;0.70;;;0.70;;
19593;SDS011;9944;48.240;16.478;2023-12-20T13:43:18;1.23;;;0.90;;
19593;SDS011;9944;48.240;16.478;2023-12-20T13:47:25;0.75;;;0.75;;
19593;SDS011;9944;48.240;16.478;2023-12-20T13:51:28;0.80;;;0.80;;
19593;SDS011;9944;48.240;16.478;2023-12-20T13:55:31;0.98;;;0.80;;
19593;SDS011;9944;48.240;16.478;2023-12-20T13:59:34;1.70;;;0.80;;
19593;SDS011;9944;48.240;16.478;2023-12-20T14:03:39;0.80;;;0.80;;
19593;SDS011;9944;48.240;16.478;2023-12-20T14:07:42;1.02;;;0.80;;
19593;SDS011;9944;48.240;16.478;2023-12-20T14:11:47;3.35;;;0.82;;
19593;SDS011;9944;48.240;16.478;2023-12-20T14:15:51;0.80;;;0.75;;
19593;SDS011;9944;48.240;16.478;2023-12-20T14:19:57;1.08;;;0.90;;
19593;SDS011;9944;48.240;16.478;2023-12-20T14:24:00;1.10;;;0.90;;
19593;SDS011;9944;48.240;16.478;2023-12-20T14:28:04;1.20;;;0.95;;
19593;SDS011;9944;48.240;16.478;2023-12-20T14:32:07;1.27;;;0.98;;
19593;SDS011;9944;48.240;16.478;2023-12-20T14:36:12;0.70;;;0.70;;
19593;SDS011;9944;48.240;16.478;2023-12-20T14:40:15;1.00;;;0.90;;
19593;SDS011;9944;48.240;16.478;2023-12-20T14:44:19;0.93;;;0.80;;
19593;SDS011;9944;48.240;16.478;2023-12-20T14:48:23;0.70;;;0.70;;
19593;SDS011;9944;48.240;16.478;2023-12-20T14:52:28;0.80;;;0.73;;
19593;SDS011;9944;48.240;16.478;2023-12-20T14:56:31;1.02;;;0.85;;
19593;SDS011;9944;48.240;16.478;2023-12-20T15:00:34;1.05;;;0.80;;
19593;SDS011;9944;48.240;16.478;2023-12-20T15:04:37;0.60;;;0.60;;
19593;SDS011;9944;48.240;16.478;2023-12-20T15:08:43;1.45;;;0.90;;
19593;SDS011;9944;48.240;16.478;2023-12-20T15:12:46;1.00;;;0.70;;
19593;SDS011;9944;48.240;16.478;2023-12-20T15:16:50;0.82;;;0.80;;
19593;SDS011;9944;48.240;16.478;2023-12-20T15:20:54;0.57;;;0.55;;
19593;SDS011;9944;48.240;16.478;2023-12-20T15:24:59;1.05;;;0.88;;
19593;SDS011;9944;48.240;16.478;2023-12-20T15:29:03;0.95;;;0.80;;
19593;SDS011;9944;48.240;16.478;2023-12-20T15:33:06;2.35;;;0.80;;
19593;SDS011;9944;48.240;16.478;2023-12-20T15:37:09;1.45;;;1.00;;
19593;SDS011;9944;48.240;16.478;2023-12-20T15:41:18;3.97;;;1.88;;
19593;SDS011;9944;48.240;16.478;2023-12-20T15:45:21;1.85;;;1.10;;
19593;SDS011;9944;48.240;16.478;2023-12-20T15:49:25;1.55;;;0.85;;
19593;SDS011;9944;48.240;16.478;2023-12-20T15:53:28;0.70;;;0.70;;
19593;SDS011;9944;48.240;16.478;2023-12-20T15:57:33;1.45;;;0.90;;
19593;SDS011;9944;48.240;16.478;2023-12-20T16:01:52;0.70;;;0.70;;
19593;SDS011;9944;48.240;16.478;2023-12-20T16:05:55;1.20;;;0.90;;
19593;SDS011;9944;48.240;16.478;2023-12-20T16:10:00;1.27;;;1.10;;
19593;SDS011;9944;48.240;16.478;2023-12-20T16:14:05;1.30;;;1.00;;
19593;SDS011;9944;48.240;16.478;2023-12-20T16:18:08;1.10;;;1.00;;
19593;SDS011;9944;48.240;16.478;2023-12-20T16:22:13;1.17;;;1.00;;
19593;SDS011;9944;48.240;16.478;2023-12-20T16:26:16;1.05;;;0.90;;
19593;SDS011;9944;48.240;16.478;2023-12-20T16:30:21;1.33;;;1.02;;
19593;SDS011;9944;48.240;16.478;2023-12-20T16:34:24;1.30;;;1.10;;
19593;SDS011;9944;48.240;16.478;2023-12-20T16:38:27;1.00;;;0.90;;
19593;SDS011;9944;48.240;16.478;2023-12-20T16:42:30;1.17;;;1.08;;
19593;SDS011;9944;48.240;16.478;2023-12-20T16:46:35;1.05;;;0.95;;
19593;SDS011;9944;48.240;16.478;2023-12-20T16:50:38;1.05;;;0.82;;
19593;SDS011;9944;48.240;16.478;2023-12-20T16:54:42;0.60;;;0.60;;
19593;SDS011;9944;48.240;16.478;2023-12-20T16:58:45;1.25;;;1.05;;
19593;SDS011;9944;48.240;16.478;2023-12-20T17:02:49;0.73;;;0.73;;
19593;SDS011;9944;48.240;16.478;2023-12-20T17:06:53;1.02;;;0.93;;
19593;SDS011;9944;48.240;16.478;2023-12-20T17:10:57;0.93;;;0.82;;
19593;SDS011;9944;48.240;16.478;2023-12-20T17:15:00;2.28;;;0.90;;
19593;SDS011;9944;48.240;16.478;2023-12-20T17:19:06;1.98;;;0.98;;
19593;SDS011;9944;48.240;16.478;2023-12-20T17:23:10;1.00;;;0.90;;
19593;SDS011;9944;48.240;16.478;2023-12-20T17:27:13;1.40;;;0.68;;
19593;SDS011;9944;48.240;16.478;2023-12-20T17:31:17;1.63;;;0.90;;
19593;SDS011;9944;48.240;16.478;2023-12-20T17:35:21;0.93;;;0.73;;
19593;SDS011;9944;48.240;16.478;2023-12-20T17:39:24;0.70;;;0.70;;
19593;SDS011;9944;48.240;16.478;2023-12-20T17:43:28;0.63;;;0.60;;
19593;SDS011;9944;48.240;16.478;2023-12-20T17:47:31;0.55;;;0.45;;
19593;SDS011;9944;48.240;16.478;2023-12-20T17:51:36;0.60;;;0.60;;
19593;SDS011;9944;48.240;16.478;2023-12-20T17:55:39;1.35;;;0.70;;
19593;SDS011;9944;48.240;16.478;2023-12-20T17:59:43;0.45;;;0.45;;
19593;SDS011;9944;48.240;16.478;2023-12-20T18:03:46;0.73;;;0.60;;
19593;SDS011;9944;48.240;16.478;2023-12-20T18:07:51;1.58;;;0.80;;
19593;SDS011;9944;48.240;16.478;2023-12-20T18:11:54;1.00;;;0.80;;
19593;SDS011;9944;48.240;16.478;2023-12-20T18:15:57;0.70;;;0.70;;
19593;SDS011;9944;48.240;16.478;2023-12-20T18:20:01;1.60;;;1.00;;
19593;SDS011;9944;48.240;16.478;2023-12-20T18:24:07;1.35;;;0.90;;
19593;SDS011;9944;48.240;16.478;2023-12-20T18:28:12;1.40;;;0.90;;
19593;SDS011;9944;48.240;16.478;2023-12-20T18:32:16;1.52;;;1.10;;
19593;SDS011;9944;48.240;16.478;2023-12-20T18:36:19;2.40;;;0.75;;
19593;SDS011;9944;48.240;16.478;2023-12-20T18:40:24;0.85;;;0.70;;
19593;SDS011;9944;48.240;16.478;2023-12-20T18:44:28;1.00;;;0.90;;
19593;SDS011;9944;48.240;16.478;2023-12-20T18:48:33;1.00;;;0.90;;
19593;SDS011;9944;48.240;16.478;2023-12-20T18:52:37;1.75;;;0.88;;
19593;SDS011;9944;48.240;16.478;2023-12-20T18:56:41;0.98;;;0.73;;
19593;SDS011;9944;48.240;16.478;2023-12-20T19:00:44;2.28;;;0.93;;
19593;SDS011;9944;48.240;16.478;2023-12-20T19:04:48;0.63;;;0.63;;
19593;SDS011;9944;48.240;16.478;2023-12-20T19:08:51;0.85;;;0.85;;
19593;SDS011;9944;48.240;16.478;2023-12-20T19:12:56;0.90;;;0.80;;
19593;SDS011;9944;48.240;16.478;2023-12-20T19:17:00;1.10;;;1.00;;
19593;SDS011;9944;48.240;16.478;2023-12-20T19:21:04;1.55;;;1.08;;
19593;SDS011;9944;48.240;16.478;2023-12-20T19:25:09;1.08;;;0.70;;
19593;SDS011;9944;48.240;16.478;2023-12-20T19:29:15;1.90;;;1.00;;
19593;SDS011;9944;48.240;16.478;2023-12-20T19:33:18;1.73;;;1.00;;
19593;SDS011;9944;48.240;16.478;2023-12-20T19:37:22;1.98;;;0.75;;
19593;SDS011;9944;48.240;16.478;2023-12-20T19:41:25;1.30;;;1.00;;
19593;SDS011;9944;48.240;16.478;2023-12-20T19:45:30;0.98;;;0.82;;
19593;SDS011;9944;48.240;16.478;2023-12-20T19:49:33;1.50;;;0.80;;
19593;SDS011;9944;48.240;16.478;2023-12-20T19:53:37;1.33;;;0.88;;
19593;SDS011;9944;48.240;16.478;2023-12-20T19:57:41;1.42;;;0.80;;
19593;SDS011;9944;48.240;16.478;2023-12-20T20:01:46;1.85;;;0.77;;
19593;SDS011;9944;48.240;16.478;2023-12-20T20:05:49;1.67;;;1.10;;
19593;SDS011;9944;48.240;16.478;2023-12-20T20:09:53;1.73;;;0.77;;
19593;SDS011;9944;48.240;16.478;2023-12-20T20:13:56;2.30;;;1.13;;
19593;SDS011;9944;48.240;16.478;2023-12-20T20:18:02;1.80;;;1.15;;
19593;SDS011;9944;48.240;16.478;2023-12-20T20:22:06;0.95;;;0.85;;
19593;SDS011;9944;48.240;16.478;2023-12-20T20:26:09;1.92;;;1.20;;
19593;SDS011;9944;48.240;16.478;2023-12-20T20:30:12;2.20;;;0.90;;
19593;SDS011;9944;48.240;16.478;2023-12-20T20:34:17;1.23;;;1.02;;
19593;SDS011;9944;48.240;16.478;2023-12-20T20:38:22;1.80;;;1.15;;
19593;SDS011;9944;48.240;16.478;2023-12-20T20:42:26;1.55;;;1.30;;
19593;SDS011;9944;48.240;16.478;2023-12-20T20:46:30;1.90;;;1.23;;
19593;SDS011;9944;48.240;16.478;2023-12-20T20:50:35;3.55;;;1.38;;
19593;SDS011;9944;48.240;16.478;2023-12-20T20:54:39;1.40;;;1.10;;
19593;SDS011;9944;48.240;16.478;2023-12-20T20:58:42;2.55;;;1.17;;
19593;SDS011;9944;48.240;16.478;2023-12-20T21:02:46;2.47;;;1.30;;
19593;SDS011;9944;48.240;16.478;2023-12-20T21:06:52;3.33;;;1.20;;
19593;SDS011;9944;48.240;16.478;2023-12-20T21:10:55;2.40;;;1.13;;
19593;SDS011;9944;48.240;16.478;2023-12-20T21:15:01;1.08;;;0.98;;
19593;SDS011;9944;48.240;16.478;2023-12-20T21:19:04;2.03;;;1.30;;
19593;SDS011;9944;48.240;16.478;2023-12-20T21:23:09;2.10;;;1.25;;
19593;SDS011;9944;48.240;16.478;2023-12-20T21:27:12;2.65;;;1.20;;
19593;SDS011;9944;48.240;16.478;2023-12-20T21:31:16;2.20;;;1.15;;
19593;SDS011;9944;48.240;16.478;2023-12-20T21:35:19;1.10;;;1.00;;
19593;SDS011;9944;48.240;16.478;2023-12-20T21:39:24;1.13;;;0.90;;
19593;SDS011;9944;48.240;16.478;2023-12-20T21:43:34;1.73;;;1.20;;
19593;SDS011;9944;48.240;16.478;2023-12-20T21:47:39;4.18;;;1.00;;
19593;SDS011;9944;48.240;16.478;2023-12-20T21:51:43;1.40;;;0.90;;
19593;SDS011;9944;48.240;16.478;2023-12-20T21:55:48;2.50;;;1.00;;
19593;SDS011;9944;48.240;16.478;2023-12-20T21:59:51;1.52;;;0.88;;
19593;SDS011;9944;48.240;16.478;2023-12-20T22:03:54;1.10;;;0.90;;
19593;SDS011;9944;48.240;16.478;2023-12-20T22:07:57;2.15;;;0.90;;
19593;SDS011;9944;48.240;16.478;2023-12-20T22:12:04;1.92;;;0.88;;
19593;SDS011;9944;48.240;16.478;2023-12-20T22:16:08;1.25;;;1.02;;
19593;SDS011;9944;48.240;16.478;2023-12-20T22:20:11;1.80;;;1.08;;
19593;SDS011;9944;48.240;16.478;2023-12-20T22:24:15;1.08;;;0.98;;
19593;SDS011;9944;48.240;16.478;2023-12-20T22:28:20;4.65;;;1.00;;
19593;SDS011;9944;48.240;16.478;2023-12-20T22:32:23;3.03;;;0.98;;
19593;SDS011;9944;48.240;16.478;2023-12-20T22:36:28;1.88;;;0.90;;
19593;SDS011;9944;48.240;16.478;2023-12-20T22:40:31;1.65;;;0.88;;
19593;SDS011;9944;48.240;16.478;2023-12-20T22:44:36;2.40;;;1.05;;
19593;SDS011;9944;48.240;16.478;2023-12-20T22:48:39;1.40;;;0.82;;
19593;SDS011;9944;48.240;16.478;2023-12-20T22:52:43;2.97;;;1.13;;
19593;SDS011;9944;48.240;16.478;2023-12-20T22:56:46;1.67;;;1.00;;
19593;SDS011;9944;48.240;16.478;2023-12-20T23:00:57;2.92;;;1.10;;
19593;SDS011;9944;48.240;16.478;2023-12-20T23:05:00;2.47;;;1.10;;
19593;SDS011;9944;48.240;16.478;2023-12-20T23:09:04;1.85;;;0.90;;
19593;SDS011;9944;48.240;16.478;2023-12-20T23:13:09;2.00;;;1.00;;
19593;SDS011;9944;48.240;16.478;2023-12-20T23:17:14;1.02;;;0.90;;
19593;SDS011;9944;48.240;16.478;2023-12-20T23:21:17;1.65;;;0.95;;
19593;SDS011;9944;48.240;16.478;2023-12-20T23:25:20;1.45;;;0.82;;
19593;SDS011;9944;48.240;16.478;2023-12-20T23:29:23;2.63;;;0.90;;
19593;SDS011;9944;48.240;16.478;2023-12-20T23:33:27;2.20;;;1.02;;
19593;SDS011;9944;48.240;16.478;2023-12-20T23:37:31;1.13;;;0.85;;
19593;SDS011;9944;48.240;16.478;2023-12-20T23:41:34;0.90;;;0.85;;
19593;SDS011;9944;48.240;16.478;2023-12-20T23:45:37;2.10;;;0.90;;
19593;SDS011;9944;48.240;16.478;2023-12-20T23:49:41;1.23;;;0.90;;
19593;SDS011;9944;48.240;16.478;2023-12-20T23:53:44;1.52;;;1.10;;
19593;SDS011;9944;48.240;16.478;2023-12-20T23:57:48;1.70;;;0.80;;
